Portada
METAR-TAF:

METAR-TAF

Aeroports :

Kars, Turquia

latitud: 40-36N, longitud: 043-05E, altitud: 1775 m

Observació

L'informe es va fer fa 50 minuts, a les 02:50 UTC
Vent 9 kt del Est
Temperatura 16°C
Humitat 77%
Pressió 1018 hPa
Visibilitat 10 km o més
Núvols disperses a una alçada de 3500 ft

METAR: LTCF 220250Z 08009KT 9999 SCT035 16/12 Q1018

Hora: 06:40 (03:40 UTC)

Pronòstic

L'informe es va fer fa 2 hores i 0 minuts, a les 01:40 UTC
Pronòstic vàlid del 22 a les 03 UTC al 22 a les 12 UTC
Vent 9 kt del Est/Nord-Est
Visibilitat 10 km o més
Núvols disperses a una alçada de 3500 ft

TAF: LTCF 220140Z 2203/2212 06009KT 9999 SCT035

Observacions i pronòstics meteorològics de més de 4000 aeroports (METAR i TAF).

Les estacions disponibles són els punts grocs i vermells al mapa.

Posi el ratolí al punt desitjat per veure el nom de l'estació.

Feu clic per veure les observacions i els pronòstics meteorològics.

Per canviar el mapa: feu clic els botons verds amb una creu de color negre per apropar; al botó verd amb un guió per allunyar la imatge; o en les fletxes verdes per a mapes adjacents.


METAR-TAF: